sensor_id;sensor_type;location;lat;lon;timestamp;pressure;altitude;pressure_sealevel;temperature;humidity
84617;BME280;74846;51.126;16.944;2024-01-06T00:01:20;99269.09;;;3.26;75.94
84617;BME280;74846;51.126;16.944;2024-01-06T00:03:49;99266.75;;;3.36;75.91
84617;BME280;74846;51.126;16.944;2024-01-06T00:06:17;99270.48;;;3.42;75.81
84617;BME280;74846;51.126;16.944;2024-01-06T00:08:45;99273.83;;;3.45;75.46
84617;BME280;74846;51.126;16.944;2024-01-06T00:11:13;99272.64;;;3.44;75.32
84617;BME280;74846;51.126;16.944;2024-01-06T00:13:41;99272.56;;;3.46;75.13
84617;BME280;74846;51.126;16.944;2024-01-06T00:16:09;99270.05;;;3.48;75.01
84617;BME280;74846;51.126;16.944;2024-01-06T00:18:37;99273.95;;;3.50;74.90
84617;BME280;74846;51.126;16.944;2024-01-06T00:21:05;99274.37;;;3.48;75.19
84617;BME280;74846;51.126;16.944;2024-01-06T00:23:33;99265.54;;;3.48;75.43
84617;BME280;74846;51.126;16.944;2024-01-06T00:26:02;99270.46;;;3.54;75.44
84617;BME280;74846;51.126;16.944;2024-01-06T00:28:30;99277.41;;;3.58;75.50
84617;BME280;74846;51.126;16.944;2024-01-06T00:30:58;99278.38;;;3.67;75.51
84617;BME280;74846;51.126;16.944;2024-01-06T00:33:26;99278.74;;;3.70;75.05
84617;BME280;74846;51.126;16.944;2024-01-06T00:35:54;99279.40;;;3.68;75.05
84617;BME280;74846;51.126;16.944;2024-01-06T00:38:23;99286.52;;;3.71;74.76
84617;BME280;74846;51.126;16.944;2024-01-06T00:40:51;99284.89;;;3.65;74.60
84617;BME280;74846;51.126;16.944;2024-01-06T00:43:19;99283.64;;;3.51;74.80
84617;BME280;74846;51.126;16.944;2024-01-06T00:45:47;99291.34;;;3.42;75.13
84617;BME280;74846;51.126;16.944;2024-01-06T00:48:16;99293.56;;;3.31;75.29
84617;BME280;74846;51.126;16.944;2024-01-06T00:50:44;99296.13;;;3.36;75.63
84617;BME280;74846;51.126;16.944;2024-01-06T00:53:12;99295.27;;;3.36;75.75
84617;BME280;74846;51.126;16.944;2024-01-06T00:55:40;99297.27;;;3.33;75.91
84617;BME280;74846;51.126;16.944;2024-01-06T00:58:08;99301.34;;;3.40;75.99
84617;BME280;74846;51.126;16.944;2024-01-06T01:00:36;99293.92;;;3.43;75.64
84617;BME280;74846;51.126;16.944;2024-01-06T01:03:05;99283.98;;;3.27;75.42
84617;BME280;74846;51.126;16.944;2024-01-06T01:05:33;99295.21;;;3.25;75.51
84617;BME280;74846;51.126;16.944;2024-01-06T01:08:01;99292.73;;;3.22;75.61
84617;BME280;74846;51.126;16.944;2024-01-06T01:14:03;99294.49;;;3.29;75.53
84617;BME280;74846;51.126;16.944;2024-01-06T01:16:31;99296.75;;;3.29;75.39
84617;BME280;74846;51.126;16.944;2024-01-06T01:19:00;99302.42;;;3.23;75.31
84617;BME280;74846;51.126;16.944;2024-01-06T01:21:29;99306.46;;;3.10;75.73
84617;BME280;74846;51.126;16.944;2024-01-06T01:23:58;99307.45;;;3.03;75.95
84617;BME280;74846;51.126;16.944;2024-01-06T01:26:26;99314.32;;;3.00;76.13
84617;BME280;74846;51.126;16.944;2024-01-06T01:28:54;99318.41;;;3.02;76.27
84617;BME280;74846;51.126;16.944;2024-01-06T01:31:23;99319.84;;;3.06;75.91
84617;BME280;74846;51.126;16.944;2024-01-06T01:33:51;99319.91;;;3.04;76.00
84617;BME280;74846;51.126;16.944;2024-01-06T01:36:19;99312.63;;;3.03;75.82
84617;BME280;74846;51.126;16.944;2024-01-06T01:38:47;99308.27;;;3.00;75.86
84617;BME280;74846;51.126;16.944;2024-01-06T01:41:15;99308.27;;;2.92;75.98
84617;BME280;74846;51.126;16.944;2024-01-06T01:43:43;99314.67;;;2.88;76.12
84617;BME280;74846;51.126;16.944;2024-01-06T01:46:13;99316.55;;;2.85;76.08
84617;BME280;74846;51.126;16.944;2024-01-06T01:48:41;99314.63;;;2.85;76.02
84617;BME280;74846;51.126;16.944;2024-01-06T01:51:09;99314.95;;;2.86;76.25
84617;BME280;74846;51.126;16.944;2024-01-06T01:53:38;99317.98;;;2.84;76.50
84617;BME280;74846;51.126;16.944;2024-01-06T01:56:06;99306.51;;;2.80;76.60
84617;BME280;74846;51.126;16.944;2024-01-06T01:58:34;99323.45;;;2.90;76.66
84617;BME280;74846;51.126;16.944;2024-01-06T02:01:02;99320.04;;;2.97;76.62
84617;BME280;74846;51.126;16.944;2024-01-06T02:03:30;99314.88;;;3.04;76.05
84617;BME280;74846;51.126;16.944;2024-01-06T02:05:58;99305.41;;;3.06;75.69
84617;BME280;74846;51.126;16.944;2024-01-06T02:08:27;99289.71;;;2.95;75.74
84617;BME280;74846;51.126;16.944;2024-01-06T02:10:55;99296.91;;;2.93;75.64
84617;BME280;74846;51.126;16.944;2024-01-06T02:13:24;99296.05;;;2.85;75.83
84617;BME280;74846;51.126;16.944;2024-01-06T02:15:52;99301.66;;;2.79;76.14
84617;BME280;74846;51.126;16.944;2024-01-06T02:18:21;99304.96;;;2.79;76.29
84617;BME280;74846;51.126;16.944;2024-01-06T02:20:49;99306.21;;;2.79;76.49
84617;BME280;74846;51.126;16.944;2024-01-06T02:23:20;99302.05;;;2.78;76.41
84617;BME280;74846;51.126;16.944;2024-01-06T02:25:48;99308.70;;;2.85;76.49
84617;BME280;74846;51.126;16.944;2024-01-06T02:28:16;99297.91;;;2.86;76.16
84617;BME280;74846;51.126;16.944;2024-01-06T02:30:44;99288.91;;;2.86;75.96
84617;BME280;74846;51.126;16.944;2024-01-06T02:33:12;99282.98;;;2.78;76.02
84617;BME280;74846;51.126;16.944;2024-01-06T02:35:40;99283.27;;;2.71;76.16
84617;BME280;74846;51.126;16.944;2024-01-06T02:38:08;99280.14;;;2.63;76.18
84617;BME280;74846;51.126;16.944;2024-01-06T02:40:37;99291.09;;;2.67;76.54
84617;BME280;74846;51.126;16.944;2024-01-06T02:43:05;99284.64;;;2.68;76.54
84617;BME280;74846;51.126;16.944;2024-01-06T02:45:33;99293.80;;;2.77;76.65
84617;BME280;74846;51.126;16.944;2024-01-06T02:48:02;99292.58;;;2.81;76.59
84617;BME280;74846;51.126;16.944;2024-01-06T02:50:30;99290.95;;;2.78;76.16
84617;BME280;74846;51.126;16.944;2024-01-06T02:52:58;99307.48;;;2.82;76.02
84617;BME280;74846;51.126;16.944;2024-01-06T02:55:26;99303.43;;;2.83;75.92
84617;BME280;74846;51.126;16.944;2024-01-06T02:57:54;99303.14;;;2.82;75.73
84617;BME280;74846;51.126;16.944;2024-01-06T03:00:22;99303.60;;;2.83;75.60
84617;BME280;74846;51.126;16.944;2024-01-06T03:02:50;99308.78;;;2.84;75.63
84617;BME280;74846;51.126;16.944;2024-01-06T03:05:18;99304.89;;;2.81;75.62
84617;BME280;74846;51.126;16.944;2024-01-06T03:07:46;99299.51;;;2.81;76.02
84617;BME280;74846;51.126;16.944;2024-01-06T03:10:14;99296.92;;;2.85;76.04
84617;BME280;74846;51.126;16.944;2024-01-06T03:12:42;99295.27;;;2.88;76.21
84617;BME280;74846;51.126;16.944;2024-01-06T03:15:10;99288.90;;;2.90;76.04
84617;BME280;74846;51.126;16.944;2024-01-06T03:17:39;99287.64;;;2.91;76.05
84617;BME280;74846;51.126;16.944;2024-01-06T03:20:07;99295.56;;;2.93;75.80
84617;BME280;74846;51.126;16.944;2024-01-06T03:22:36;99305.11;;;2.89;75.67
84617;BME280;74846;51.126;16.944;2024-01-06T03:25:06;99307.30;;;2.86;75.82
84617;BME280;74846;51.126;16.944;2024-01-06T03:27:34;99310.20;;;2.83;75.79
84617;BME280;74846;51.126;16.944;2024-01-06T03:30:02;99316.77;;;2.84;75.52
84617;BME280;74846;51.126;16.944;2024-01-06T03:32:31;99321.48;;;2.83;75.47
84617;BME280;74846;51.126;16.944;2024-01-06T03:34:59;99328.40;;;2.80;75.50
84617;BME280;74846;51.126;16.944;2024-01-06T03:37:27;99327.59;;;2.82;75.86
84617;BME280;74846;51.126;16.944;2024-01-06T03:39:55;99327.94;;;2.87;75.99
84617;BME280;74846;51.126;16.944;2024-01-06T03:42:23;99324.29;;;2.91;75.87
84617;BME280;74846;51.126;16.944;2024-01-06T03:44:51;99330.34;;;2.91;75.85
84617;BME280;74846;51.126;16.944;2024-01-06T03:47:19;99336.52;;;3.01;75.76
84617;BME280;74846;51.126;16.944;2024-01-06T03:49:47;99338.02;;;3.03;75.46
84617;BME280;74846;51.126;16.944;2024-01-06T03:52:15;99339.52;;;3.08;75.37
84617;BME280;74846;51.126;16.944;2024-01-06T03:54:43;99348.65;;;3.10;75.11
84617;BME280;74846;51.126;16.944;2024-01-06T03:57:11;99346.66;;;3.08;75.02
84617;BME280;74846;51.126;16.944;2024-01-06T03:59:39;99347.00;;;3.04;75.02
84617;BME280;74846;51.126;16.944;2024-01-06T04:02:07;99340.40;;;3.00;75.17
84617;BME280;74846;51.126;16.944;2024-01-06T04:04:35;99336.93;;;2.96;75.04
84617;BME280;74846;51.126;16.944;2024-01-06T04:07:03;99337.94;;;3.01;75.14
84617;BME280;74846;51.126;16.944;2024-01-06T04:09:32;99340.20;;;3.05;75.40
84617;BME280;74846;51.126;16.944;2024-01-06T04:12:00;99343.22;;;3.03;75.52
84617;BME280;74846;51.126;16.944;2024-01-06T04:14:29;99344.52;;;3.01;75.27
84617;BME280;74846;51.126;16.944;2024-01-06T04:16:57;99342.76;;;2.97;75.09
84617;BME280;74846;51.126;16.944;2024-01-06T04:19:25;99338.84;;;2.88;75.28
84617;BME280;74846;51.126;16.944;2024-01-06T04:21:53;99339.14;;;2.76;75.39
84617;BME280;74846;51.126;16.944;2024-01-06T04:24:22;99339.34;;;2.71;75.50
84617;BME280;74846;51.126;16.944;2024-01-06T04:26:50;99343.16;;;2.67;75.60
84617;BME280;74846;51.126;16.944;2024-01-06T04:29:18;99342.29;;;2.59;75.64
84617;BME280;74846;51.126;16.944;2024-01-06T04:31:46;99343.41;;;2.56;75.71
84617;BME280;74846;51.126;16.944;2024-01-06T04:34:14;99351.92;;;2.56;75.84
84617;BME280;74846;51.126;16.944;2024-01-06T04:36:42;99351.00;;;2.62;75.89
84617;BME280;74846;51.126;16.944;2024-01-06T04:39:10;99355.81;;;2.54;75.96
84617;BME280;74846;51.126;16.944;2024-01-06T04:41:40;99341.91;;;2.41;76.13
84617;BME280;74846;51.126;16.944;2024-01-06T04:44:08;99355.19;;;2.48;76.25
84617;BME280;74846;51.126;16.944;2024-01-06T04:46:36;99360.80;;;2.51;76.13
84617;BME280;74846;51.126;16.944;2024-01-06T04:49:04;99361.19;;;2.50;75.97
84617;BME280;74846;51.126;16.944;2024-01-06T04:51:33;99360.89;;;2.44;75.79
84617;BME280;74846;51.126;16.944;2024-01-06T04:54:01;99362.54;;;2.46;75.91
84617;BME280;74846;51.126;16.944;2024-01-06T04:56:29;99360.04;;;2.43;75.96
84617;BME280;74846;51.126;16.944;2024-01-06T04:59:01;99362.80;;;2.35;76.09
84617;BME280;74846;51.126;16.944;2024-01-06T08:56:18;99622.94;;;2.03;76.47
84617;BME280;74846;51.126;16.944;2024-01-06T08:58:47;99624.35;;;1.97;76.24
84617;BME280;74846;51.126;16.944;2024-01-06T09:01:17;99628.10;;;1.89;76.69
84617;BME280;74846;51.126;16.944;2024-01-06T09:03:46;99635.33;;;1.90;76.75
84617;BME280;74846;51.126;16.944;2024-01-06T09:06:14;99638.80;;;1.85;77.04
84617;BME280;74846;51.126;16.944;2024-01-06T09:08:42;99641.27;;;1.83;77.33
84617;BME280;74846;51.126;16.944;2024-01-06T09:11:10;99642.32;;;1.83;77.52
84617;BME280;74846;51.126;16.944;2024-01-06T09:13:39;99645.08;;;1.83;77.56
84617;BME280;74846;51.126;16.944;2024-01-06T09:16:07;99649.13;;;1.81;77.41
84617;BME280;74846;51.126;16.944;2024-01-06T09:18:35;99650.59;;;1.74;77.84
84617;BME280;74846;51.126;16.944;2024-01-06T09:21:03;99651.20;;;1.72;77.52
84617;BME280;74846;51.126;16.944;2024-01-06T09:23:31;99660.11;;;1.63;77.83
84617;BME280;74846;51.126;16.944;2024-01-06T09:26:00;99663.66;;;1.61;78.16
84617;BME280;74846;51.126;16.944;2024-01-06T09:28:27;99666.61;;;1.66;78.34
84617;BME280;74846;51.126;16.944;2024-01-06T09:30:56;99667.53;;;1.70;78.06
84617;BME280;74846;51.126;16.944;2024-01-06T09:33:24;99667.61;;;1.62;78.47
84617;BME280;74846;51.126;16.944;2024-01-06T09:35:52;99668.52;;;1.60;78.24
84617;BME280;74846;51.126;16.944;2024-01-06T09:38:21;99673.72;;;1.55;78.77
84617;BME280;74846;51.126;16.944;2024-01-06T09:40:49;99670.80;;;1.48;78.88
84617;BME280;74846;51.126;16.944;2024-01-06T09:43:17;99665.77;;;1.48;78.94
84617;BME280;74846;51.126;16.944;2024-01-06T09:45:50;99667.98;;;1.49;79.24
84617;BME280;74846;51.126;16.944;2024-01-06T09:48:28;99671.50;;;1.53;78.95
84617;BME280;74846;51.126;16.944;2024-01-06T09:51:00;99664.19;;;1.48;79.32
84617;BME280;74846;51.126;16.944;2024-01-06T09:53:34;99674.27;;;1.59;78.96
84617;BME280;74846;51.126;16.944;2024-01-06T09:56:04;99674.23;;;1.49;78.94
84617;BME280;74846;51.126;16.944;2024-01-06T09:58:34;99675.31;;;1.47;79.27
84617;BME280;74846;51.126;16.944;2024-01-06T10:01:02;99671.82;;;1.49;79.32
84617;BME280;74846;51.126;16.944;2024-01-06T10:03:30;99676.67;;;1.60;79.31
84617;BME280;74846;51.126;16.944;2024-01-06T10:05:59;99683.17;;;1.69;78.68
84617;BME280;74846;51.126;16.944;2024-01-06T10:08:31;99685.65;;;1.67;78.26
84617;BME280;74846;51.126;16.944;2024-01-06T10:11:02;99687.79;;;1.59;78.32
84617;BME280;74846;51.126;16.944;2024-01-06T10:13:30;99691.61;;;1.59;78.16
84617;BME280;74846;51.126;16.944;2024-01-06T10:15:58;99688.88;;;1.51;78.79
84617;BME280;74846;51.126;16.944;2024-01-06T10:18:27;99692.96;;;1.54;78.74
84617;BME280;74846;51.126;16.944;2024-01-06T10:20:58;99694.45;;;1.56;79.00
84617;BME280;74846;51.126;16.944;2024-01-06T10:23:27;99694.95;;;1.63;78.40
84617;BME280;74846;51.126;16.944;2024-01-06T10:25:56;99696.70;;;1.57;78.21
84617;BME280;74846;51.126;16.944;2024-01-06T10:28:27;99697.88;;;1.52;78.64
84617;BME280;74846;51.126;16.944;2024-01-06T10:30:56;99693.69;;;1.47;78.93
84617;BME280;74846;51.126;16.944;2024-01-06T10:33:26;99692.03;;;1.51;78.81
84617;BME280;74846;51.126;16.944;2024-01-06T10:35:54;99694.10;;;1.57;78.70
84617;BME280;74846;51.126;16.944;2024-01-06T10:38:29;99688.10;;;1.55;78.93
84617;BME280;74846;51.126;16.944;2024-01-06T10:41:04;99691.36;;;1.56;78.57
84617;BME280;74846;51.126;16.944;2024-01-06T10:43:37;99694.21;;;1.53;78.76
84617;BME280;74846;51.126;16.944;2024-01-06T10:46:12;99691.34;;;1.51;78.98
84617;BME280;74846;51.126;16.944;2024-01-06T10:48:42;99682.67;;;1.50;79.06
84617;BME280;74846;51.126;16.944;2024-01-06T10:51:13;99689.28;;;1.56;78.89
84617;BME280;74846;51.126;16.944;2024-01-06T10:53:43;99679.14;;;1.59;78.64
84617;BME280;74846;51.126;16.944;2024-01-06T10:56:12;99672.38;;;1.53;78.70
84617;BME280;74846;51.126;16.944;2024-01-06T10:58:47;99683.55;;;1.56;78.87
84617;BME280;74846;51.126;16.944;2024-01-06T11:01:23;99676.65;;;1.55;78.95
84617;BME280;74846;51.126;16.944;2024-01-06T11:03:57;99670.09;;;1.54;78.52
84617;BME280;74846;51.126;16.944;2024-01-06T11:06:26;99680.05;;;1.57;79.07
84617;BME280;74846;51.126;16.944;2024-01-06T11:11:37;99683.98;;;1.48;79.06
84617;BME280;74846;51.126;16.944;2024-01-06T11:14:25;99675.90;;;1.51;79.12
84617;BME280;74846;51.126;16.944;2024-01-06T11:16:54;99682.98;;;1.57;78.51
84617;BME280;74846;51.126;16.944;2024-01-06T11:22:28;99680.52;;;1.36;79.19
84617;BME280;74846;51.126;16.944;2024-01-06T11:25:04;99683.38;;;1.33;79.38
84617;BME280;74846;51.126;16.944;2024-01-06T11:27:34;99691.61;;;1.36;79.58
84617;BME280;74846;51.126;16.944;2024-01-06T11:30:04;99693.23;;;1.39;79.44
84617;BME280;74846;51.126;16.944;2024-01-06T11:32:37;99682.30;;;1.34;78.67
84617;BME280;74846;51.126;16.944;2024-01-06T11:35:11;99693.46;;;1.32;78.81
84617;BME280;74846;51.126;16.944;2024-01-06T11:40:21;99701.14;;;1.18;79.36
84617;BME280;74846;51.126;16.944;2024-01-06T11:45:33;99692.96;;;1.25;79.38
84617;BME280;74846;51.126;16.944;2024-01-06T11:48:05;99695.52;;;1.27;78.93
84617;BME280;74846;51.126;16.944;2024-01-06T11:50:37;99696.81;;;1.24;78.78
84617;BME280;74846;51.126;16.944;2024-01-06T11:53:07;99699.14;;;1.21;78.68
84617;BME280;74846;51.126;16.944;2024-01-06T11:55:39;99696.36;;;1.15;78.72
84617;BME280;74846;51.126;16.944;2024-01-06T11:58:07;99697.98;;;1.13;78.80
84617;BME280;74846;51.126;16.944;2024-01-06T12:00:35;99698.25;;;1.16;78.84
84617;BME280;74846;51.126;16.944;2024-01-06T12:03:05;99698.13;;;1.21;78.34
84617;BME280;74846;51.126;16.944;2024-01-06T12:05:33;99701.02;;;1.22;78.54
84617;BME280;74846;51.126;16.944;2024-01-06T12:08:03;99699.49;;;1.27;78.19
84617;BME280;74846;51.126;16.944;2024-01-06T12:10:36;99697.34;;;1.18;78.18
84617;BME280;74846;51.126;16.944;2024-01-06T12:13:06;99702.77;;;1.15;78.32
84617;BME280;74846;51.126;16.944;2024-01-06T12:15:39;99702.95;;;1.15;78.44
84617;BME280;74846;51.126;16.944;2024-01-06T12:18:08;99711.65;;;1.20;78.36
84617;BME280;74846;51.126;16.944;2024-01-06T12:20:37;99713.90;;;1.26;78.51
84617;BME280;74846;51.126;16.944;2024-01-06T12:23:05;99712.61;;;1.29;78.53
84617;BME280;74846;51.126;16.944;2024-01-06T12:25:35;99710.65;;;1.30;78.07
84617;BME280;74846;51.126;16.944;2024-01-06T12:28:07;99716.91;;;1.30;78.23
84617;BME280;74846;51.126;16.944;2024-01-06T12:30:38;99723.44;;;1.25;78.06
84617;BME280;74846;51.126;16.944;2024-01-06T12:33:06;99723.55;;;1.21;78.13
84617;BME280;74846;51.126;16.944;2024-01-06T12:35:34;99718.69;;;1.16;78.24
84617;BME280;74846;51.126;16.944;2024-01-06T12:38:04;99716.97;;;1.16;78.62
84617;BME280;74846;51.126;16.944;2024-01-06T12:40:36;99711.00;;;1.18;78.94
84617;BME280;74846;51.126;16.944;2024-01-06T12:43:05;99714.36;;;1.22;79.27
84617;BME280;74846;51.126;16.944;2024-01-06T12:45:33;99718.99;;;1.23;79.30
84617;BME280;74846;51.126;16.944;2024-01-06T12:48:02;99720.83;;;1.26;79.31
84617;BME280;74846;51.126;16.944;2024-01-06T12:50:30;99719.14;;;1.18;79.65
84617;BME280;74846;51.126;16.944;2024-01-06T12:52:58;99719.81;;;1.13;79.80
84617;BME280;74846;51.126;16.944;2024-01-06T12:55:26;99724.12;;;1.14;79.57
84617;BME280;74846;51.126;16.944;2024-01-06T12:57:54;99724.10;;;1.14;79.77
84617;BME280;74846;51.126;16.944;2024-01-06T13:00:22;99724.22;;;1.16;79.72
84617;BME280;74846;51.126;16.944;2024-01-06T13:02:50;99720.64;;;1.21;79.57
84617;BME280;74846;51.126;16.944;2024-01-06T13:05:18;99725.20;;;1.24;79.35
84617;BME280;74846;51.126;16.944;2024-01-06T13:07:48;99726.98;;;1.23;79.32
84617;BME280;74846;51.126;16.944;2024-01-06T13:10:17;99727.69;;;1.28;79.07
84617;BME280;74846;51.126;16.944;2024-01-06T13:12:45;99729.38;;;1.30;78.57
84617;BME280;74846;51.126;16.944;2024-01-06T13:15:13;99734.02;;;1.25;78.13
84617;BME280;74846;51.126;16.944;2024-01-06T13:17:41;99739.64;;;1.22;78.48
84617;BME280;74846;51.126;16.944;2024-01-06T13:20:10;99740.14;;;1.23;78.15
84617;BME280;74846;51.126;16.944;2024-01-06T13:22:38;99739.48;;;1.21;77.68
84617;BME280;74846;51.126;16.944;2024-01-06T13:25:08;99742.43;;;1.16;78.23
84617;BME280;74846;51.126;16.944;2024-01-06T13:27:37;99746.59;;;1.15;78.39
84617;BME280;74846;51.126;16.944;2024-01-06T13:30:06;99748.48;;;1.16;77.94
84617;BME280;74846;51.126;16.944;2024-01-06T13:32:37;99737.42;;;1.02;77.71
84617;BME280;74846;51.126;16.944;2024-01-06T13:35:06;99756.77;;;1.10;77.70
84617;BME280;74846;51.126;16.944;2024-01-06T13:37:34;99759.31;;;1.06;77.41
84617;BME280;74846;51.126;16.944;2024-01-06T13:40:03;99766.66;;;1.10;77.62
84617;BME280;74846;51.126;16.944;2024-01-06T13:42:31;99765.33;;;1.14;77.00
84617;BME280;74846;51.126;16.944;2024-01-06T13:44:59;99768.11;;;1.07;77.27
84617;BME280;74846;51.126;16.944;2024-01-06T13:47:30;99770.29;;;1.04;77.05
84617;BME280;74846;51.126;16.944;2024-01-06T13:49:59;99772.31;;;0.99;77.28
84617;BME280;74846;51.126;16.944;2024-01-06T13:52:27;99775.50;;;0.90;77.64
84617;BME280;74846;51.126;16.944;2024-01-06T13:54:55;99774.08;;;0.91;77.51
84617;BME280;74846;51.126;16.944;2024-01-06T13:57:23;99768.61;;;0.89;77.71
84617;BME280;74846;51.126;16.944;2024-01-06T13:59:51;99768.27;;;0.95;77.27
84617;BME280;74846;51.126;16.944;2024-01-06T14:02:19;99781.63;;;1.01;77.24
84617;BME280;74846;51.126;16.944;2024-01-06T14:04:47;99785.14;;;0.98;77.34
84617;BME280;74846;51.126;16.944;2024-01-06T14:07:15;99790.55;;;1.03;77.22
84617;BME280;74846;51.126;16.944;2024-01-06T14:09:46;99790.05;;;1.02;77.39
84617;BME280;74846;51.126;16.944;2024-01-06T14:12:15;99778.62;;;0.97;77.28
84617;BME280;74846;51.126;16.944;2024-01-06T14:14:43;99798.06;;;1.07;77.36
84617;BME280;74846;51.126;16.944;2024-01-06T14:17:11;99798.17;;;1.03;77.49
84617;BME280;74846;51.126;16.944;2024-01-06T14:19:39;99803.72;;;0.96;77.83
84617;BME280;74846;51.126;16.944;2024-01-06T14:22:08;99809.23;;;0.98;78.14
84617;BME280;74846;51.126;16.944;2024-01-06T14:24:36;99806.73;;;1.00;78.16
84617;BME280;74846;51.126;16.944;2024-01-06T14:27:04;99811.59;;;1.07;78.06
84617;BME280;74846;51.126;16.944;2024-01-06T14:29:32;99817.19;;;1.05;77.09
84617;BME280;74846;51.126;16.944;2024-01-06T14:32:00;99821.01;;;0.91;77.13
84617;BME280;74846;51.126;16.944;2024-01-06T14:34:28;99820.50;;;0.83;77.35
84617;BME280;74846;51.126;16.944;2024-01-06T14:36:56;99830.52;;;0.77;77.36
84617;BME280;74846;51.126;16.944;2024-01-06T14:39:24;99824.50;;;0.69;77.64
84617;BME280;74846;51.126;16.944;2024-01-06T14:41:53;99818.29;;;0.68;77.50
84617;BME280;74846;51.126;16.944;2024-01-06T14:44:20;99835.20;;;0.77;77.59
84617;BME280;74846;51.126;16.944;2024-01-06T14:46:48;99835.92;;;0.76;77.39
84617;BME280;74846;51.126;16.944;2024-01-06T14:49:18;99838.14;;;0.70;77.46
84617;BME280;74846;51.126;16.944;2024-01-06T14:51:47;99838.35;;;0.68;77.56
84617;BME280;74846;51.126;16.944;2024-01-06T14:54:15;99841.94;;;0.63;77.64
84617;BME280;74846;51.126;16.944;2024-01-06T14:56:43;99843.17;;;0.62;77.58
84617;BME280;74846;51.126;16.944;2024-01-06T14:59:11;99840.88;;;0.64;77.52
84617;BME280;74846;51.126;16.944;2024-01-06T15:01:43;99845.70;;;0.65;77.45
84617;BME280;74846;51.126;16.944;2024-01-06T15:04:12;99847.09;;;0.65;77.61
84617;BME280;74846;51.126;16.944;2024-01-06T15:06:41;99847.09;;;0.65;77.33
84617;BME280;74846;51.126;16.944;2024-01-06T15:09:09;99844.16;;;0.58;77.26
84617;BME280;74846;51.126;16.944;2024-01-06T15:11:37;99841.86;;;0.45;77.64
84617;BME280;74846;51.126;16.944;2024-01-06T15:14:05;99852.32;;;0.48;77.71
84617;BME280;74846;51.126;16.944;2024-01-06T15:16:37;99850.06;;;0.49;77.51
84617;BME280;74846;51.126;16.944;2024-01-06T15:19:05;99853.73;;;0.47;77.46
84617;BME280;74846;51.126;16.944;2024-01-06T15:21:35;99862.73;;;0.48;77.70
84617;BME280;74846;51.126;16.944;2024-01-06T15:24:05;99866.15;;;0.49;77.18
84617;BME280;74846;51.126;16.944;2024-01-06T15:26:33;99853.52;;;0.34;77.56
84617;BME280;74846;51.126;16.944;2024-01-06T15:29:01;99859.09;;;0.33;77.67
84617;BME280;74846;51.126;16.944;2024-01-06T15:31:30;99866.89;;;0.33;78.05
84617;BME280;74846;51.126;16.944;2024-01-06T15:33:58;99866.36;;;0.33;78.04
84617;BME280;74846;51.126;16.944;2024-01-06T15:36:26;99876.16;;;0.35;78.01
84617;BME280;74846;51.126;16.944;2024-01-06T15:38:54;99878.92;;;0.36;78.07
84617;BME280;74846;51.126;16.944;2024-01-06T15:41:22;99885.05;;;0.32;78.19
84617;BME280;74846;51.126;16.944;2024-01-06T15:43:51;99879.98;;;0.27;78.32
84617;BME280;74846;51.126;16.944;2024-01-06T15:46:19;99879.86;;;0.24;78.27
84617;BME280;74846;51.126;16.944;2024-01-06T15:48:48;99882.18;;;0.21;78.35
84617;BME280;74846;51.126;16.944;2024-01-06T15:51:16;99880.72;;;0.25;78.22
84617;BME280;74846;51.126;16.944;2024-01-06T15:53:44;99878.59;;;0.28;78.29
84617;BME280;74846;51.126;16.944;2024-01-06T15:56:12;99884.76;;;0.30;77.98
84617;BME280;74846;51.126;16.944;2024-01-06T15:58:40;99884.02;;;0.32;78.15
84617;BME280;74846;51.126;16.944;2024-01-06T16:01:08;99882.69;;;0.30;78.01
84617;BME280;74846;51.126;16.944;2024-01-06T16:03:37;99886.16;;;0.29;78.00
84617;BME280;74846;51.126;16.944;2024-01-06T16:06:05;99889.76;;;0.23;78.18
84617;BME280;74846;51.126;16.944;2024-01-06T16:08:33;99888.02;;;0.15;78.42
84617;BME280;74846;51.126;16.944;2024-01-06T16:11:01;99904.42;;;0.24;78.64
84617;BME280;74846;51.126;16.944;2024-01-06T16:13:29;99894.96;;;0.22;78.14
84617;BME280;74846;51.126;16.944;2024-01-06T16:15:57;99894.80;;;0.21;78.19
84617;BME280;74846;51.126;16.944;2024-01-06T16:18:26;99897.48;;;0.25;77.87
84617;BME280;74846;51.126;16.944;2024-01-06T16:20:54;99902.93;;;0.21;78.15
84617;BME280;74846;51.126;16.944;2024-01-06T16:23:24;99901.02;;;0.13;78.51
84617;BME280;74846;51.126;16.944;2024-01-06T16:25:52;99896.80;;;0.17;78.27
84617;BME280;74846;51.126;16.944;2024-01-06T16:28:20;99897.81;;;0.18;78.59
84617;BME280;74846;51.126;16.944;2024-01-06T16:30:49;99904.88;;;0.28;77.94
84617;BME280;74846;51.126;16.944;2024-01-06T16:33:17;99907.97;;;0.20;77.87
84617;BME280;74846;51.126;16.944;2024-01-06T16:35:45;99911.16;;;0.24;77.74
84617;BME280;74846;51.126;16.944;2024-01-06T16:38:14;99906.66;;;0.17;77.58
84617;BME280;74846;51.126;16.944;2024-01-06T16:40:42;99908.45;;;0.14;77.53
84617;BME280;74846;51.126;16.944;2024-01-06T16:43:10;99911.14;;;0.09;77.62
84617;BME280;74846;51.126;16.944;2024-01-06T16:45:39;99914.47;;;0.07;77.89
84617;BME280;74846;51.126;16.944;2024-01-06T16:48:08;99909.55;;;0.11;77.77
84617;BME280;74846;51.126;16.944;2024-01-06T16:50:36;99914.02;;;0.12;77.82
84617;BME280;74846;51.126;16.944;2024-01-06T16:53:07;99913.30;;;0.13;77.65
84617;BME280;74846;51.126;16.944;2024-01-06T16:55:35;99914.83;;;0.15;77.54
84617;BME280;74846;51.126;16.944;2024-01-06T16:58:04;99920.63;;;0.11;77.32
84617;BME280;74846;51.126;16.944;2024-01-06T17:00:33;99925.25;;;0.04;77.43
84617;BME280;74846;51.126;16.944;2024-01-06T17:03:01;99927.73;;;0.01;77.53
84617;BME280;74846;51.126;16.944;2024-01-06T17:05:29;99932.21;;;0.02;77.51
84617;BME280;74846;51.126;16.944;2024-01-06T17:07:57;99933.79;;;0.01;77.63
84617;BME280;74846;51.126;16.944;2024-01-06T17:10:25;99932.02;;;0.03;77.70
84617;BME280;74846;51.126;16.944;2024-01-06T17:12:53;99931.32;;;0.03;77.57
84617;BME280;74846;51.126;16.944;2024-01-06T17:15:22;99940.73;;;-0.01;77.57
84617;BME280;74846;51.126;16.944;2024-01-06T17:17:52;99940.98;;;-0.05;77.61